Hlavní strana
METAR-TAF:

METAR-TAF

Letiště :

Letiště Tunošna

Jaroslavl, Rusko

zeměpisná šířka: 57-33-38N, zeměpisná délka: 040-09-27E, výška: 87 m

Aktuální stav počasí

Zpráva byla vytvořena před 49 minutami, v 17:30 UTC
Severozápadní vítr 4 kt
Teplota -1°C
Vlhkost vzduchu 54%
Tlak 1031 hPa
Viditelnost 10 km a více
Žádná oblačnost pod 1500 m, nevyskytují se cumulonimby.

METAR: UUDL 061730Z 32002MPS CAVOK M01/M09 Q1031 R23/010060 NOSIG RMK QFE765

Čas: 21:19 (18:19 UTC)

Předpověď počasí

Zpráva byla vytvořena před 4 hodinami a 19 minutami, v 14:00 UTC
Předpověď platná od 06 v 15 UTC do 07 v 15 UTC
Severozápadní vítr 6 kt
Viditelnost 10 km a více
Polojasno ve výšce 4000 ft
Dočasný
od 07 v 06 UTC do 07 v 15 UTC
Západojihozápadní vítr 10 kt

TAF: UUDL 061400Z 0615/0715 31003MPS 9999 SCT040 TX05/0713Z TNM05/0703Z TEMPO 0706/0715 24005MPS

Stav a předpovědi počasí z více než 4 000 letišť (zprávy METAR a TAF).

Červené a žluté tečky na mapě představují dostupné meteorologické stanice.

Když kurzor umístíte na tečku, zobrazí se název stanice.

Pak kliknutím zobrazíte stav a předpověď počasí.

Chcete-li změnit mapu, kliknutím na zelené tlačítko se znaménkem +mapu přiblížíte, kliknutím na zelené tlačítko se znaménkem – mapu oddálíte a kliknutím na zelené šipky přejdete na sousední mapy.


METAR-TAF: